Miranda De Ebro, Spain
Current Conditions -  °F | °C
As of 5:30 AM on Sunday 26 Oct 2014 (Local Time) from LEVT Reporting Station
Clear Clear  
Wind Chill: 46°   Ceiling: Unl
Heat Index: 46°   Visibility: 6mi
Dew Point: 46°   Wind: 0mph
Humidity: 100%   Direction: NA
Pressure: 30.21"   Gusts: NA
Location:  42.69°N, 2.95°W
Report Text: LEVT 260330Z 00000KT CAVOK 08/08 Q1023
Loading
Personal Weather Stations






























Interactive Weather Map
Tropical Storm Tracking
New forecast layout! Learn more

10-Day Weather Forecast

Advertisements
Track Severe Weather on mobile